createdAt,value
2023-01-19T00:02:13.284Z,95.50
2023-01-19T00:04:46.131Z,95.41
2023-01-19T00:07:22.128Z,95.46
2023-01-19T00:09:57.443Z,95.38
2023-01-19T00:12:29.760Z,95.30
2023-01-19T00:15:02.932Z,95.28
2023-01-19T00:17:36.793Z,95.59
2023-01-19T00:20:11.440Z,95.33
2023-01-19T00:22:43.766Z,95.40
2023-01-19T00:25:16.727Z,95.26
2023-01-19T00:27:50.889Z,94.99
2023-01-19T00:30:26.577Z,95.08
2023-01-19T00:33:04.858Z,95.03
2023-01-19T00:35:37.357Z,94.96
2023-01-19T00:38:13.174Z,94.96
2023-01-19T00:40:45.916Z,95.12
2023-01-19T00:43:18.217Z,95.08
2023-01-19T00:45:51.183Z,94.97
2023-01-19T00:48:25.988Z,94.97
2023-01-19T00:50:58.301Z,94.90
2023-01-19T00:53:32.649Z,94.79
2023-01-19T00:56:09.391Z,94.86
2023-01-19T00:58:42.388Z,94.79
2023-01-19T01:01:15.085Z,94.51
2023-01-19T01:03:47.700Z,94.65
2023-01-19T01:06:24.217Z,94.51
2023-01-19T01:08:56.614Z,94.56
2023-01-19T01:11:32.033Z,94.54
2023-01-19T01:14:05.208Z,94.58
2023-01-19T01:16:42.444Z,94.45
2023-01-19T01:19:14.939Z,94.42
2023-01-19T01:21:51.283Z,94.51
2023-01-19T01:24:25.092Z,94.63
2023-01-19T01:26:57.620Z,94.88
2023-01-19T01:29:35.484Z,94.71
2023-01-19T01:32:10.567Z,94.72
2023-01-19T01:34:43.369Z,94.72
2023-01-19T01:37:15.837Z,94.74
2023-01-19T01:39:48.207Z,94.44
2023-01-19T01:42:26.740Z,94.40
2023-01-19T01:45:02.065Z,94.46
2023-01-19T01:47:38.789Z,94.28
2023-01-19T01:50:15.812Z,94.39
2023-01-19T01:53:06.339Z,94.65
2023-01-19T01:55:49.603Z,94.54
2023-01-19T01:58:25.239Z,94.47
2023-01-19T02:01:18.652Z,94.57
2023-01-19T02:03:56.890Z,94.77
2023-01-19T02:06:30.733Z,94.66
2023-01-19T02:09:29.570Z,94.51
2023-01-19T02:12:20.049Z,94.81
2023-01-19T02:14:53.116Z,95.08
2023-01-19T02:17:28.695Z,94.97
2023-01-19T02:20:02.916Z,95.05
2023-01-19T02:22:49.841Z,95.21
2023-01-19T02:25:29.202Z,95.19
2023-01-19T02:28:03.564Z,95.05
2023-01-19T02:30:38.454Z,94.87
2023-01-19T02:33:10.913Z,95.11
2023-01-19T02:35:44.917Z,94.94
2023-01-19T02:38:20.168Z,94.89
2023-01-19T02:40:53.313Z,94.96
2023-01-19T02:43:26.510Z,94.58
2023-01-19T02:45:59.092Z,94.55
2023-01-19T02:48:31.759Z,94.76
2023-01-19T02:51:12.757Z,94.81
2023-01-19T02:53:59.557Z,94.88
2023-01-19T02:56:51.064Z,94.88
2023-01-19T02:59:38.460Z,94.80
2023-01-19T03:02:30.014Z,94.79
2023-01-19T03:05:22.677Z,94.92
2023-01-19T03:08:08.296Z,94.75
2023-01-19T03:10:48.864Z,94.65
2023-01-19T03:13:31.185Z,94.75
2023-01-19T03:16:11.621Z,94.71
2023-01-19T03:18:51.124Z,94.45
2023-01-19T03:21:27.921Z,94.49
2023-01-19T03:24:04.073Z,94.66
2023-01-19T03:26:44.141Z,94.56
2023-01-19T03:29:20.999Z,94.74
2023-01-19T03:31:55.422Z,94.68
2023-01-19T03:34:29.618Z,94.83
2023-01-19T03:37:06.945Z,94.53
2023-01-19T03:39:39.402Z,94.62
2023-01-19T03:42:15.858Z,94.78
2023-01-19T03:44:51.385Z,94.74
2023-01-19T03:47:25.072Z,94.78
2023-01-19T03:49:59.635Z,94.43
2023-01-19T03:52:33.877Z,94.66
2023-01-19T03:55:07.529Z,94.50
2023-01-19T03:57:40.419Z,94.64
2023-01-19T04:00:18.376Z,94.50
2023-01-19T04:02:53.903Z,94.53
2023-01-19T04:05:29.560Z,94.67
2023-01-19T04:08:02.004Z,94.73
2023-01-19T04:10:39.668Z,94.60
2023-01-19T04:13:12.272Z,94.62
2023-01-19T04:15:44.763Z,94.57
2023-01-19T04:18:20.170Z,94.63
2023-01-19T04:20:52.610Z,94.62
2023-01-19T04:23:25.565Z,94.70
2023-01-19T04:26:02.986Z,94.51
2023-01-19T04:28:37.267Z,94.67
2023-01-19T04:31:10.185Z,94.66
2023-01-19T04:33:42.941Z,94.46
2023-01-19T04:36:15.700Z,94.54
2023-01-19T04:38:49.094Z,94.39
2023-01-19T04:41:21.466Z,94.67
2023-01-19T04:43:53.813Z,94.59
2023-01-19T04:46:26.173Z,94.65
2023-01-19T04:48:58.504Z,94.47
2023-01-19T04:51:30.949Z,94.51
2023-01-19T04:54:04.260Z,94.66
2023-01-19T04:56:40.919Z,94.84
2023-01-19T04:59:16.044Z,94.88
2023-01-19T05:01:49.537Z,94.63
2023-01-19T05:04:22.530Z,94.50
2023-01-19T05:06:56.114Z,94.55
2023-01-19T05:09:28.479Z,94.54
2023-01-19T05:12:01.321Z,94.58
2023-01-19T05:14:34.427Z,94.51
2023-01-19T05:17:06.942Z,94.34
2023-01-19T05:19:39.653Z,94.35
2023-01-19T05:22:18.115Z,94.44
2023-01-19T05:24:50.647Z,94.58
2023-01-19T05:27:26.407Z,94.64
2023-01-19T05:30:01.902Z,94.59
2023-01-19T05:32:34.347Z,94.59
2023-01-19T05:35:07.375Z,94.48
2023-01-19T05:37:39.801Z,94.21
2023-01-19T05:40:13.615Z,94.58
2023-01-19T05:42:47.870Z,94.30
2023-01-19T05:45:22.859Z,94.53
2023-01-19T05:47:57.968Z,94.87
2023-01-19T05:50:33.118Z,94.73
2023-01-19T05:53:05.624Z,94.82
2023-01-19T05:55:38.112Z,94.87
2023-01-19T05:58:10.421Z,94.78
2023-01-19T06:00:43.709Z,94.68
2023-01-19T06:03:21.824Z,94.73
2023-01-19T06:05:58.181Z,94.59
2023-01-19T06:08:30.684Z,94.44
2023-01-19T06:11:03.137Z,94.62
2023-01-19T06:13:35.736Z,94.57
2023-01-19T06:16:10.697Z,94.43
2023-01-19T06:18:43.140Z,94.73
2023-01-19T06:21:15.499Z,94.97
2023-01-19T06:23:48.180Z,94.80
2023-01-19T06:26:20.584Z,94.87
2023-01-19T06:28:53.497Z,94.95
2023-01-19T06:31:25.975Z,95.17
2023-01-19T06:33:58.247Z,95.12
2023-01-19T06:36:33.176Z,95.27
2023-01-19T06:39:06.032Z,95.33
2023-01-19T06:41:41.246Z,95.35
2023-01-19T06:44:16.048Z,95.48
2023-01-19T06:46:49.186Z,95.33
2023-01-19T06:49:21.498Z,95.58
2023-01-19T06:51:53.846Z,95.79
2023-01-19T06:54:27.289Z,95.66
2023-01-19T06:57:00.199Z,95.85
2023-01-19T06:59:33.748Z,95.83
2023-01-19T07:02:26.429Z,95.80
2023-01-19T07:05:00.524Z,95.65
2023-01-19T07:07:32.912Z,95.71
2023-01-19T07:10:06.893Z,95.73
2023-01-19T07:12:39.424Z,96.03
2023-01-19T07:15:15.580Z,96.02
2023-01-19T07:17:47.944Z,95.97
2023-01-19T07:20:20.815Z,96.16
2023-01-19T07:22:58.751Z,96.23
2023-01-19T07:25:32.099Z,96.18
2023-01-19T07:28:07.511Z,96.28
2023-01-19T07:30:39.923Z,96.27
2023-01-19T07:33:12.418Z,96.28
2023-01-19T07:35:49.377Z,96.53
2023-01-19T07:38:24.120Z,96.42
2023-01-19T07:41:03.038Z,96.26
2023-01-19T07:43:35.391Z,96.51
2023-01-19T07:46:10.826Z,96.45
2023-01-19T07:48:44.505Z,96.71
2023-01-19T07:51:20.723Z,96.63
2023-01-19T07:53:53.989Z,96.59
2023-01-19T07:56:27.949Z,96.71
2023-01-19T07:59:00.409Z,97.01
2023-01-19T08:01:33.025Z,97.11
2023-01-19T08:04:05.908Z,97.17
2023-01-19T08:06:41.083Z,97.15
2023-01-19T08:09:13.409Z,97.34
2023-01-19T08:11:47.361Z,97.56
2023-01-19T08:14:19.707Z,97.76
2023-01-19T08:16:51.904Z,97.63
2023-01-19T08:19:24.504Z,97.63
2023-01-19T08:21:59.204Z,97.85
2023-01-19T08:24:31.659Z,98.06
2023-01-19T08:27:07.055Z,98.04
2023-01-19T08:29:42.565Z,98.11
2023-01-19T08:32:14.952Z,97.93
2023-01-19T08:34:47.435Z,98.09
2023-01-19T08:37:19.755Z,98.32
2023-01-19T08:39:53.722Z,98.33
2023-01-19T08:42:26.042Z,98.32
2023-01-19T08:45:01.171Z,98.27
2023-01-19T08:47:33.538Z,98.22
2023-01-19T08:50:06.146Z,98.26
2023-01-19T08:52:38.502Z,98.18
2023-01-19T08:55:12.657Z,98.12
2023-01-19T08:57:45.005Z,98.34
2023-01-19T09:00:19.017Z,98.49
2023-01-19T09:02:51.822Z,98.49
2023-01-19T09:05:24.453Z,98.41
2023-01-19T09:07:57.037Z,98.56
2023-01-19T09:10:31.736Z,98.37
2023-01-19T09:13:05.161Z,98.38
2023-01-19T09:15:38.225Z,98.31
2023-01-19T09:18:13.595Z,98.37
2023-01-19T09:20:47.682Z,98.40
2023-01-19T09:23:22.749Z,98.68
2023-01-19T09:25:59.797Z,98.59
2023-01-19T09:28:32.614Z,98.36
2023-01-19T09:31:09.629Z,98.64
2023-01-19T09:33:44.364Z,98.84
2023-01-19T09:36:19.370Z,98.81
2023-01-19T09:38:51.786Z,98.53
2023-01-19T09:41:26.195Z,98.52
2023-01-19T09:44:01.100Z,98.46
2023-01-19T09:46:39.998Z,98.45
2023-01-19T09:49:16.926Z,98.32
2023-01-19T09:51:51.487Z,98.37
2023-01-19T09:54:31.292Z,98.57
2023-01-19T09:57:05.504Z,98.57
2023-01-19T09:59:38.930Z,98.59
2023-01-19T10:02:24.532Z,98.45
2023-01-19T10:05:02.559Z,98.41
2023-01-19T10:07:53.456Z,98.46
2023-01-19T10:10:27.391Z,98.41
2023-01-19T10:13:05.457Z,98.34
2023-01-19T10:15:46.998Z,98.33
2023-01-19T10:18:25.409Z,98.36
2023-01-19T10:21:04.616Z,98.49
2023-01-19T10:23:45.988Z,98.56
2023-01-19T10:26:24.670Z,98.36
2023-01-19T10:29:03.377Z,98.25
2023-01-19T10:31:39.109Z,97.98
2023-01-19T10:34:21.548Z,98.14
2023-01-19T10:37:03.599Z,98.26
2023-01-19T10:39:38.731Z,98.19
2023-01-19T10:42:17.054Z,98.29
2023-01-19T10:44:50.554Z,98.46
2023-01-19T10:47:27.732Z,98.27
2023-01-19T10:50:22.798Z,98.44
2023-01-19T10:52:57.567Z,98.28
2023-01-19T10:55:33.177Z,98.28
2023-01-19T10:58:07.015Z,98.32
2023-01-19T11:00:44.369Z,98.18
2023-01-19T11:03:25.964Z,98.30
2023-01-19T11:06:26.346Z,98.28
2023-01-19T11:09:16.948Z,98.35
2023-01-19T11:11:52.526Z,98.21
2023-01-19T11:14:27.598Z,98.31
2023-01-19T11:17:00.919Z,98.57
2023-01-19T11:19:35.040Z,98.55
2023-01-19T11:22:22.418Z,98.60
2023-01-19T11:24:58.419Z,98.70
2023-01-19T11:27:32.289Z,98.49
2023-01-19T11:30:18.601Z,98.42
2023-01-19T11:32:54.548Z,98.27
2023-01-19T11:35:38.040Z,98.49
2023-01-19T11:38:19.319Z,98.46
2023-01-19T11:40:56.855Z,98.47
2023-01-19T11:43:47.477Z,98.32
2023-01-19T11:46:22.234Z,98.68
2023-01-19T11:49:02.213Z,98.57
2023-01-19T11:51:41.221Z,98.47
2023-01-19T11:54:24.858Z,98.45
2023-01-19T11:56:59.827Z,98.71
2023-01-19T11:59:32.169Z,98.73
2023-01-19T12:02:18.454Z,98.80
2023-01-19T12:04:55.712Z,98.81
2023-01-19T12:07:32.305Z,98.71
2023-01-19T12:10:17.026Z,98.77
2023-01-19T12:12:50.339Z,98.86
2023-01-19T12:15:28.058Z,98.64
2023-01-19T12:18:02.965Z,98.72
2023-01-19T12:20:38.968Z,98.47
2023-01-19T12:23:27.122Z,98.50
2023-01-19T12:26:14.113Z,98.46
2023-01-19T12:28:49.469Z,98.81
2023-01-19T12:31:23.891Z,98.82
2023-01-19T12:33:56.680Z,98.73
2023-01-19T12:36:41.995Z,98.77
2023-01-19T12:39:23.383Z,98.87
2023-01-19T12:42:09.322Z,98.92
2023-01-19T12:44:42.771Z,99.11
2023-01-19T12:47:24.891Z,99.08
2023-01-19T12:50:03.845Z,98.94
2023-01-19T12:52:41.400Z,99.16
2023-01-19T12:55:25.108Z,98.90
2023-01-19T12:58:05.063Z,99.13
2023-01-19T13:00:42.852Z,99.18
2023-01-19T13:04:00.660Z,99.15
2023-01-19T13:07:10.620Z,98.94
2023-01-19T13:09:43.346Z,98.81
2023-01-19T13:12:23.264Z,98.89
2023-01-19T13:15:35.282Z,98.94
2023-01-19T13:18:12.152Z,98.78
2023-01-19T13:20:52.214Z,98.62
2023-01-19T13:23:27.867Z,98.64
2023-01-19T13:26:15.980Z,98.63
2023-01-19T13:28:52.062Z,98.72
2023-01-19T13:31:25.767Z,98.56
2023-01-19T13:34:01.098Z,98.24
2023-01-19T13:36:36.575Z,98.42
2023-01-19T13:39:17.062Z,98.01
2023-01-19T13:41:55.051Z,98.15
2023-01-19T13:44:29.690Z,98.17
2023-01-19T13:47:04.912Z,98.25
2023-01-19T13:49:41.551Z,98.34
2023-01-19T13:52:22.327Z,98.05
2023-01-19T13:54:56.247Z,98.23
2023-01-19T13:57:30.926Z,98.27
2023-01-19T14:00:19.025Z,98.09
2023-01-19T14:03:02.743Z,98.14
2023-01-19T14:05:36.921Z,98.24
2023-01-19T14:08:18.241Z,98.37
2023-01-19T14:11:03.042Z,98.28
2023-01-19T14:13:40.263Z,97.98
2023-01-19T14:16:19.980Z,97.98
2023-01-19T14:19:02.391Z,97.74
2023-01-19T14:21:42.292Z,97.82
2023-01-19T14:24:19.782Z,98.06
2023-01-19T14:26:53.975Z,98.13
2023-01-19T14:29:28.952Z,98.32
2023-01-19T14:32:17.315Z,98.17
2023-01-19T14:34:52.219Z,97.98
2023-01-19T14:37:28.657Z,97.95
2023-01-19T14:40:05.974Z,97.96
2023-01-19T14:42:45.317Z,97.75
2023-01-19T14:45:21.099Z,97.80
2023-01-19T14:48:00.719Z,97.91
2023-01-19T14:50:38.102Z,97.91
2023-01-19T14:53:17.304Z,97.93
2023-01-19T14:55:52.146Z,98.16
2023-01-19T14:58:27.557Z,98.27
2023-01-19T15:00:59.992Z,98.17
2023-01-19T15:03:48.018Z,98.12
2023-01-19T15:06:23.281Z,98.08
2023-01-19T15:08:56.480Z,98.26
2023-01-19T15:11:32.386Z,98.26
2023-01-19T15:14:05.267Z,98.22
2023-01-19T15:16:37.698Z,97.95
2023-01-19T15:19:14.292Z,98.03
2023-01-19T15:21:47.056Z,98.13
2023-01-19T15:24:19.652Z,98.13
2023-01-19T15:26:52.045Z,98.11
2023-01-19T15:29:28.556Z,97.91
2023-01-19T15:32:00.859Z,97.97
2023-01-19T15:34:33.607Z,98.15
2023-01-19T15:37:06.005Z,98.18
2023-01-19T15:39:39.826Z,98.22
2023-01-19T15:42:15.955Z,98.21
2023-01-19T15:44:49.000Z,97.82
2023-01-19T15:47:21.301Z,97.71
2023-01-19T15:49:53.954Z,97.94
2023-01-19T15:52:26.612Z,97.85
2023-01-19T15:54:59.154Z,97.80
2023-01-19T15:57:31.681Z,97.86
2023-01-19T16:00:04.359Z,97.64
2023-01-19T16:02:42.336Z,97.64
2023-01-19T16:05:16.119Z,97.64
2023-01-19T16:07:48.353Z,97.70
2023-01-19T16:10:21.044Z,97.75
2023-01-19T16:12:53.535Z,97.71
2023-01-19T16:15:27.495Z,97.66
2023-01-19T16:17:59.903Z,97.80
2023-01-19T16:20:32.174Z,97.82
2023-01-19T16:23:20.126Z,97.81
2023-01-19T16:26:00.329Z,97.77
2023-01-19T16:28:32.727Z,97.58
2023-01-19T16:31:05.580Z,97.67
2023-01-19T16:33:38.165Z,97.89
2023-01-19T16:36:26.658Z,97.45
2023-01-19T16:39:01.690Z,97.60
2023-01-19T16:41:35.940Z,97.73
2023-01-19T16:44:09.449Z,97.65
2023-01-19T16:46:43.687Z,97.88
2023-01-19T16:49:20.146Z,97.89
2023-01-19T16:51:54.927Z,97.87
2023-01-19T16:54:28.414Z,97.76
2023-01-19T16:57:00.826Z,98.05
2023-01-19T16:59:33.204Z,97.72
2023-01-19T17:02:05.837Z,97.60
2023-01-19T17:04:38.898Z,97.71
2023-01-19T17:07:11.208Z,97.92
2023-01-19T17:09:43.531Z,97.66
2023-01-19T17:12:15.791Z,97.77
2023-01-19T17:14:48.433Z,97.69
2023-01-19T17:17:22.695Z,97.64
2023-01-19T17:19:55.073Z,97.49
2023-01-19T17:22:27.403Z,97.73
2023-01-19T17:25:02.181Z,97.94
2023-01-19T17:27:35.976Z,97.92
2023-01-19T17:30:09.837Z,97.34
2023-01-19T17:32:43.098Z,97.76
2023-01-19T17:35:17.512Z,97.73
2023-01-19T17:37:56.918Z,97.79
2023-01-19T17:40:30.841Z,97.69
2023-01-19T17:43:03.537Z,97.68
2023-01-19T17:45:37.574Z,97.64
2023-01-19T17:48:10.329Z,97.50
2023-01-19T17:50:42.898Z,97.61
2023-01-19T17:53:15.156Z,97.76
2023-01-19T17:55:47.787Z,97.76
2023-01-19T17:58:20.199Z,97.51
2023-01-19T18:00:52.567Z,97.30
2023-01-19T18:03:27.216Z,97.42
2023-01-19T18:06:06.169Z,97.37
2023-01-19T18:08:41.431Z,97.59
2023-01-19T18:11:14.005Z,97.50
2023-01-19T18:13:48.863Z,97.32
2023-01-19T18:16:24.577Z,97.41
2023-01-19T18:18:58.305Z,97.33
2023-01-19T18:21:31.076Z,97.37
2023-01-19T18:24:04.888Z,97.38
2023-01-19T18:26:38.087Z,97.54
2023-01-19T18:29:12.899Z,97.42
2023-01-19T18:31:45.582Z,97.49
2023-01-19T18:34:18.097Z,97.68
2023-01-19T18:36:50.454Z,97.56
2023-01-19T18:39:22.776Z,97.34
2023-01-19T18:41:55.185Z,97.38
2023-01-19T18:44:30.519Z,97.25
2023-01-19T18:47:05.012Z,97.26
2023-01-19T18:49:37.291Z,97.57
2023-01-19T18:52:09.812Z,97.48
2023-01-19T18:54:43.278Z,97.53
2023-01-19T18:57:17.967Z,97.63
2023-01-19T18:59:50.372Z,97.54
2023-01-19T19:02:25.823Z,97.80
2023-01-19T19:05:00.803Z,97.60
2023-01-19T19:07:33.472Z,97.40
2023-01-19T19:10:08.084Z,97.42
2023-01-19T19:12:40.551Z,97.14
2023-01-19T19:15:14.253Z,96.76
2023-01-19T19:17:46.619Z,97.03
2023-01-19T19:20:20.631Z,97.25
2023-01-19T19:22:53.323Z,97.08
2023-01-19T19:25:26.117Z,96.90
2023-01-19T19:27:59.231Z,97.06
2023-01-19T19:30:32.974Z,97.26
2023-01-19T19:33:05.572Z,97.14
2023-01-19T19:35:37.982Z,96.96
2023-01-19T19:38:10.272Z,96.66
2023-01-19T19:40:42.732Z,96.57
2023-01-19T19:43:15.096Z,97.28
2023-01-19T19:45:56.705Z,96.78
2023-01-19T19:48:29.872Z,96.63
2023-01-19T19:51:18.005Z,96.53
2023-01-19T19:53:51.916Z,96.65
2023-01-19T19:56:26.307Z,96.63
2023-01-19T19:59:01.598Z,96.66
2023-01-19T20:01:34.706Z,96.66
2023-01-19T20:04:14.962Z,96.73
2023-01-19T20:06:48.500Z,96.66
2023-01-19T20:09:21.226Z,97.00
2023-01-19T20:11:53.481Z,96.92
2023-01-19T20:14:25.834Z,96.83
2023-01-19T20:17:02.862Z,96.97
2023-01-19T20:19:35.429Z,96.93
2023-01-19T20:22:08.000Z,96.88
2023-01-19T20:24:40.711Z,96.96
2023-01-19T20:27:13.243Z,96.83
2023-01-19T20:29:51.395Z,96.92
2023-01-19T20:32:24.109Z,96.78
2023-01-19T20:34:58.654Z,96.86
2023-01-19T20:37:31.095Z,96.83
2023-01-19T20:40:03.722Z,96.95
2023-01-19T20:42:41.391Z,96.71
2023-01-19T20:45:14.552Z,96.92
2023-01-19T20:47:47.360Z,96.61
2023-01-19T20:50:20.589Z,96.50
2023-01-19T20:52:56.073Z,96.64
2023-01-19T20:55:28.545Z,96.58
2023-01-19T20:58:00.923Z,96.37
2023-01-19T21:00:34.673Z,95.99
2023-01-19T21:03:07.295Z,96.23
2023-01-19T21:05:42.252Z,95.97
2023-01-19T21:08:15.298Z,95.90
2023-01-19T21:10:47.737Z,95.79
2023-01-19T21:13:20.082Z,95.44
2023-01-19T21:15:52.527Z,95.70
2023-01-19T21:18:29.364Z,95.93
2023-01-19T21:21:04.867Z,95.73
2023-01-19T21:23:40.636Z,95.88
2023-01-19T21:26:13.923Z,95.90
2023-01-19T21:28:46.314Z,95.80
2023-01-19T21:31:18.845Z,95.63
2023-01-19T21:33:53.685Z,95.95
2023-01-19T21:36:27.618Z,96.20
2023-01-19T21:39:01.403Z,96.04
2023-01-19T21:41:35.895Z,96.13
2023-01-19T21:44:08.653Z,95.78
2023-01-19T21:46:45.127Z,95.39
2023-01-19T21:49:21.357Z,95.57
2023-01-19T21:51:53.878Z,95.71
2023-01-19T21:54:26.684Z,95.97
2023-01-19T21:57:00.275Z,96.09
2023-01-19T21:59:32.640Z,96.08
2023-01-19T22:02:05.139Z,96.15
2023-01-19T22:04:37.534Z,95.70
2023-01-19T22:07:13.526Z,95.78
2023-01-19T22:09:46.036Z,95.74
2023-01-19T22:12:18.435Z,95.66
2023-01-19T22:14:50.758Z,95.49
2023-01-19T22:17:23.630Z,95.22
2023-01-19T22:19:56.137Z,95.51
2023-01-19T22:22:33.708Z,95.93
2023-01-19T22:25:06.434Z,95.87
2023-01-19T22:27:41.425Z,95.56
2023-01-19T22:30:14.389Z,95.70
2023-01-19T22:32:46.709Z,95.77
2023-01-19T22:35:19.207Z,95.52
2023-01-19T22:37:51.602Z,95.53
2023-01-19T22:40:24.653Z,95.37
2023-01-19T22:43:01.133Z,95.23
2023-01-19T22:45:35.966Z,95.42
2023-01-19T22:48:09.710Z,95.01
2023-01-19T22:50:42.097Z,95.49
2023-01-19T22:53:14.548Z,95.55
2023-01-19T22:55:47.690Z,95.37
2023-01-19T22:58:21.689Z,95.48
2023-01-19T23:00:54.826Z,95.20
2023-01-19T23:03:27.205Z,95.38
2023-01-19T23:06:04.396Z,95.62
2023-01-19T23:08:37.130Z,95.50
2023-01-19T23:11:11.721Z,94.93
2023-01-19T23:13:45.187Z,94.98
2023-01-19T23:16:17.830Z,95.25
2023-01-19T23:18:55.662Z,95.62
2023-01-19T23:21:32.758Z,95.18
2023-01-19T23:24:11.253Z,94.94
2023-01-19T23:26:47.043Z,95.04
2023-01-19T23:29:20.868Z,94.98
2023-01-19T23:31:55.479Z,95.10
2023-01-19T23:34:30.989Z,95.05
2023-01-19T23:37:03.898Z,95.34
2023-01-19T23:39:36.854Z,95.15
2023-01-19T23:42:12.185Z,95.30
2023-01-19T23:44:45.222Z,94.94
2023-01-19T23:47:21.780Z,94.98
2023-01-19T23:49:57.901Z,94.98
2023-01-19T23:52:33.567Z,94.66
2023-01-19T23:55:13.302Z,94.77
2023-01-19T23:57:46.131Z,94.99
